Bonetraill, North Dakota
Current Conditions -  °F | °C
As of 3:52 PM on Monday 22 Dec 2014 (Local Time) from KISN Reporting Station
Overcast Overcast  
Wind Chill: 16°   Ceiling: 1600
Heat Index: 27°   Visibility: 10mi
Dew Point: 22°   Wind: 14mph
Humidity: 81%   Direction: 330°NNW
Pressure: 29.7"   Gusts: NA
Location:  48.3082°N, 103.697°W
Report Text: KISN 222152Z AUTO 33012KT 10SM OVC016 M03/M06 A2970 RMK AO2 SLP082 T10281056
Loading
Personal Weather Stations






























Interactive Weather Map New forecast layout! Learn more

10-Day Weather Forecast

Advertisements
Track Severe Weather on mobile